createdAt,value
2023-02-27T00:01:06.716Z,90.30
2023-02-27T00:03:33.898Z,90.30
2023-02-27T00:06:00.732Z,90.30
2023-02-27T00:08:27.665Z,90.40
2023-02-27T00:10:54.488Z,90.40
2023-02-27T00:13:21.584Z,90.50
2023-02-27T00:15:50.410Z,90.40
2023-02-27T00:18:17.535Z,90.60
2023-02-27T00:20:44.390Z,90.60
2023-02-27T00:23:11.077Z,90.70
2023-02-27T00:25:37.841Z,90.80
2023-02-27T00:28:05.009Z,90.70
2023-02-27T00:30:32.172Z,90.80
2023-02-27T00:32:59.119Z,90.80
2023-02-27T00:35:25.926Z,90.80
2023-02-27T00:37:52.967Z,90.80
2023-02-27T00:40:19.758Z,90.60
2023-02-27T00:42:48.660Z,90.60
2023-02-27T00:45:15.498Z,90.70
2023-02-27T00:47:42.634Z,90.70
2023-02-27T00:50:10.344Z,90.70
2023-02-27T00:52:37.089Z,90.80
2023-02-27T00:55:04.817Z,90.80
2023-02-27T00:57:31.849Z,90.80
2023-02-27T00:59:58.656Z,90.80
2023-02-27T01:02:25.492Z,90.90
2023-02-27T01:04:52.495Z,91.00
2023-02-27T01:07:19.207Z,91.20
2023-02-27T01:09:45.984Z,91.10
2023-02-27T01:12:12.763Z,91.10
2023-02-27T01:14:39.599Z,91.20
2023-02-27T01:17:06.312Z,91.20
2023-02-27T01:19:33.157Z,91.30
2023-02-27T01:21:59.941Z,91.30
2023-02-27T01:24:26.807Z,91.40
2023-02-27T01:26:53.700Z,91.30
2023-02-27T01:29:20.598Z,91.20
2023-02-27T01:31:48.988Z,91.30
2023-02-27T01:34:16.310Z,91.30
2023-02-27T01:36:43.164Z,91.30
2023-02-27T01:39:10.153Z,91.40
2023-02-27T01:41:36.869Z,91.30
2023-02-27T01:44:09.417Z,91.30
2023-02-27T01:46:36.465Z,91.40
2023-02-27T01:49:19.368Z,91.50
2023-02-27T01:52:06.111Z,91.50
2023-02-27T01:54:38.708Z,91.40
2023-02-27T01:57:09.818Z,91.50
2023-02-27T01:59:40.460Z,91.40
2023-02-27T02:02:14.603Z,91.30
2023-02-27T02:04:42.228Z,91.40
2023-02-27T02:07:15.411Z,91.50
2023-02-27T02:09:53.903Z,91.50
2023-02-27T02:12:25.687Z,91.60
2023-02-27T02:14:52.551Z,91.60
2023-02-27T02:17:45.469Z,91.70
2023-02-27T02:20:36.968Z,91.60
2023-02-27T02:23:09.829Z,91.70
2023-02-27T02:25:53.308Z,91.80
2023-02-27T02:28:32.333Z,91.70
2023-02-27T02:31:20.809Z,91.70
2023-02-27T02:34:05.208Z,91.80
2023-02-27T02:36:56.319Z,91.80
2023-02-27T02:39:41.565Z,91.80
2023-02-27T02:42:16.520Z,91.80
2023-02-27T02:44:54.393Z,91.80
2023-02-27T02:47:36.880Z,91.70
2023-02-27T02:50:09.848Z,91.80
2023-02-27T02:52:54.503Z,91.80
2023-02-27T02:55:50.639Z,91.90
2023-02-27T02:58:58.140Z,92.10
2023-02-27T03:01:37.151Z,92.10
2023-02-27T03:04:19.514Z,92.00
2023-02-27T03:07:18.761Z,92.00
2023-02-27T03:09:51.631Z,92.20
2023-02-27T03:12:22.014Z,92.20
2023-02-27T03:15:01.708Z,92.20
2023-02-27T03:17:39.536Z,92.20
2023-02-27T03:20:10.901Z,92.20
2023-02-27T03:22:40.915Z,92.50
2023-02-27T03:25:12.334Z,92.20
2023-02-27T03:27:53.703Z,92.20
2023-02-27T03:30:29.871Z,92.30
2023-02-27T03:33:10.420Z,92.20
2023-02-27T03:35:58.993Z,92.30
2023-02-27T03:38:28.574Z,92.30
2023-02-27T03:41:10.061Z,92.30
2023-02-27T03:43:52.389Z,92.40
2023-02-27T03:46:22.844Z,92.40
2023-02-27T03:48:49.715Z,92.40
2023-02-27T03:51:21.951Z,92.40
2023-02-27T03:54:09.925Z,92.40
2023-02-27T03:56:51.080Z,92.40
2023-02-27T03:59:17.983Z,92.50
2023-02-27T04:01:45.480Z,92.50
2023-02-27T04:04:15.453Z,92.40
2023-02-27T04:07:15.028Z,92.50
2023-02-27T04:09:47.352Z,92.50
2023-02-27T04:12:29.074Z,92.60
2023-02-27T04:15:04.595Z,92.60
2023-02-27T04:17:34.470Z,92.70
2023-02-27T04:20:27.696Z,92.80
2023-02-27T04:23:02.137Z,92.70
2023-02-27T04:25:37.376Z,92.80
2023-02-27T04:28:26.199Z,92.90
2023-02-27T04:31:27.619Z,92.70
2023-02-27T04:34:09.770Z,92.80
2023-02-27T04:36:48.488Z,92.60
2023-02-27T04:39:24.176Z,92.90
2023-02-27T04:42:05.658Z,92.80
2023-02-27T04:44:35.790Z,92.80
2023-02-27T04:47:05.668Z,92.80
2023-02-27T04:50:19.736Z,93.20
2023-02-27T04:52:52.850Z,93.00
2023-02-27T04:55:32.915Z,93.00
2023-02-27T04:58:12.258Z,93.00
2023-02-27T05:00:42.923Z,93.00
2023-02-27T05:03:16.618Z,93.10
2023-02-27T05:05:46.267Z,93.00
2023-02-27T05:08:18.676Z,93.00
2023-02-27T05:11:15.616Z,93.10
2023-02-27T05:13:52.397Z,93.10
2023-02-27T05:17:05.261Z,93.10
2023-02-27T05:19:33.677Z,93.10
2023-02-27T05:22:24.864Z,93.20
2023-02-27T05:24:59.560Z,93.20
2023-02-27T05:27:29.312Z,93.30
2023-02-27T05:30:15.202Z,93.20
2023-02-27T05:32:55.406Z,93.30
2023-02-27T05:36:11.074Z,93.20
2023-02-27T05:38:50.115Z,93.20
2023-02-27T05:41:23.174Z,93.20
2023-02-27T05:43:55.989Z,93.10
2023-02-27T05:46:35.548Z,93.20
2023-02-27T05:49:08.641Z,93.20
2023-02-27T05:51:37.558Z,93.30
2023-02-27T05:54:13.678Z,93.20
2023-02-27T05:56:43.329Z,93.20
2023-02-27T05:59:33.988Z,93.20
2023-02-27T06:02:00.996Z,93.30
2023-02-27T06:04:27.777Z,93.30
2023-02-27T06:06:54.687Z,93.30
2023-02-27T06:09:21.463Z,93.30
2023-02-27T06:11:48.315Z,93.30
2023-02-27T06:14:15.244Z,93.30
2023-02-27T06:16:41.924Z,93.30
2023-02-27T06:19:08.754Z,93.30
2023-02-27T06:21:35.573Z,93.40
2023-02-27T06:24:02.325Z,93.40
2023-02-27T06:26:29.280Z,93.40
2023-02-27T06:28:56.311Z,93.60
2023-02-27T06:31:23.082Z,93.50
2023-02-27T06:33:49.904Z,93.60
2023-02-27T06:36:16.756Z,93.60
2023-02-27T06:38:43.444Z,93.60
2023-02-27T06:41:10.241Z,93.60
2023-02-27T06:43:37.212Z,93.50
2023-02-27T06:46:04.273Z,93.50
2023-02-27T06:48:31.131Z,93.50
2023-02-27T06:50:57.928Z,93.50
2023-02-27T06:53:25.567Z,93.50
2023-02-27T06:55:52.669Z,93.60
2023-02-27T06:58:19.484Z,93.60
2023-02-27T07:00:46.287Z,93.70
2023-02-27T07:03:13.536Z,93.70
2023-02-27T07:05:41.753Z,93.80
2023-02-27T07:08:09.035Z,93.90
2023-02-27T07:10:35.838Z,93.90
2023-02-27T07:13:03.471Z,93.90
2023-02-27T07:15:30.352Z,93.90
2023-02-27T07:17:59.913Z,94.00
2023-02-27T07:20:26.638Z,94.10
2023-02-27T07:22:53.403Z,94.20
2023-02-27T07:25:20.207Z,94.20
2023-02-27T07:27:49.635Z,94.10
2023-02-27T07:30:17.296Z,94.10
2023-02-27T07:32:44.077Z,94.20
2023-02-27T07:35:12.008Z,94.20
2023-02-27T07:37:38.819Z,94.20
2023-02-27T07:40:07.592Z,94.20
2023-02-27T07:42:34.440Z,94.30
2023-02-27T07:45:01.644Z,94.20
2023-02-27T07:47:30.212Z,94.10
2023-02-27T07:49:57.020Z,94.10
2023-02-27T07:52:24.520Z,94.00
2023-02-27T07:54:51.324Z,94.00
2023-02-27T07:57:18.304Z,94.00
2023-02-27T07:59:45.053Z,93.80
2023-02-27T08:02:12.384Z,93.80
2023-02-27T08:04:39.124Z,93.80
2023-02-27T08:07:05.993Z,93.80
2023-02-27T08:09:32.684Z,93.60
2023-02-27T08:11:59.454Z,93.40
2023-02-27T08:14:26.187Z,93.30
2023-02-27T08:16:52.863Z,93.40
2023-02-27T08:19:19.642Z,93.30
2023-02-27T08:21:46.301Z,93.30
2023-02-27T08:24:13.065Z,93.20
2023-02-27T08:26:39.732Z,93.30
2023-02-27T08:29:06.520Z,93.20
2023-02-27T08:31:33.483Z,92.90
2023-02-27T08:34:09.811Z,92.70
2023-02-27T08:36:37.906Z,92.60
2023-02-27T08:39:05.433Z,92.10
2023-02-27T08:41:32.366Z,92.40
2023-02-27T08:43:59.122Z,92.50
2023-02-27T08:46:27.241Z,92.40
2023-02-27T08:48:54.778Z,92.70
2023-02-27T08:51:21.678Z,92.00
2023-02-27T08:53:48.370Z,92.10
2023-02-27T08:56:15.034Z,91.90
2023-02-27T08:58:41.754Z,91.60
2023-02-27T09:01:08.591Z,91.90
2023-02-27T09:03:37.345Z,91.50
2023-02-27T09:06:05.211Z,91.30
2023-02-27T09:08:32.082Z,91.10
2023-02-27T09:10:59.327Z,91.10
2023-02-27T09:13:26.803Z,90.90
2023-02-27T09:15:54.276Z,90.70
2023-02-27T09:18:21.988Z,90.60
2023-02-27T09:20:52.162Z,89.90
2023-02-27T09:23:19.209Z,89.70
2023-02-27T09:25:47.806Z,88.70
2023-02-27T09:28:15.581Z,89.60
2023-02-27T09:30:42.752Z,89.50
2023-02-27T09:33:09.488Z,89.00
2023-02-27T09:35:36.255Z,87.50
2023-02-27T09:38:03.020Z,87.80
2023-02-27T09:40:32.786Z,87.00
2023-02-27T09:43:15.758Z,87.40
2023-02-27T09:45:43.185Z,87.70
2023-02-27T09:48:38.952Z,86.70
2023-02-27T09:51:06.029Z,86.30
2023-02-27T09:53:37.407Z,85.80
2023-02-27T09:56:27.649Z,86.40
2023-02-27T09:58:54.497Z,85.90
2023-02-27T10:01:30.763Z,84.50
2023-02-27T10:04:31.735Z,83.60
2023-02-27T10:07:09.488Z,83.80
2023-02-27T10:09:47.346Z,83.70
2023-02-27T10:12:29.297Z,81.20
2023-02-27T10:15:11.268Z,81.10
2023-02-27T10:17:44.619Z,80.80
2023-02-27T10:20:22.487Z,81.60
2023-02-27T10:22:51.357Z,81.90
2023-02-27T10:25:30.835Z,81.40
2023-02-27T10:28:09.514Z,78.30
2023-02-27T10:30:36.749Z,78.90
2023-02-27T10:33:18.829Z,77.60
2023-02-27T10:35:46.028Z,79.10
2023-02-27T10:38:46.784Z,81.10
2023-02-27T10:41:17.092Z,80.00
2023-02-27T10:43:44.111Z,80.10
2023-02-27T10:46:15.298Z,80.00
2023-02-27T10:48:42.155Z,80.10
2023-02-27T10:51:38.722Z,80.30
2023-02-27T10:54:17.145Z,80.40
2023-02-27T10:56:48.886Z,80.70
2023-02-27T10:59:26.056Z,78.40
2023-02-27T11:01:59.441Z,76.40
2023-02-27T11:04:26.448Z,70.70
2023-02-27T11:06:54.574Z,70.00
2023-02-27T11:09:27.385Z,70.00
2023-02-27T11:11:55.505Z,72.00
2023-02-27T11:14:32.157Z,71.00
2023-02-27T11:17:01.131Z,71.80
2023-02-27T11:19:37.035Z,71.10
2023-02-27T11:22:16.230Z,69.30
2023-02-27T11:24:43.395Z,69.10
2023-02-27T11:27:29.223Z,69.00
2023-02-27T11:30:22.564Z,69.20
2023-02-27T11:32:51.323Z,67.30
2023-02-27T11:35:31.693Z,66.30
2023-02-27T11:38:18.092Z,65.50
2023-02-27T11:40:58.330Z,67.00
2023-02-27T11:43:28.578Z,66.50
2023-02-27T11:46:47.649Z,65.30
2023-02-27T11:49:35.596Z,64.90
2023-02-27T11:52:13.544Z,64.90
2023-02-27T11:54:58.972Z,64.00
2023-02-27T11:57:40.201Z,62.00
2023-02-27T12:00:07.479Z,62.50
2023-02-27T12:03:06.769Z,62.40
2023-02-27T12:05:42.889Z,61.90
2023-02-27T12:08:46.035Z,63.00
2023-02-27T12:11:35.909Z,60.10
2023-02-27T12:14:30.778Z,58.40
2023-02-27T12:17:13.302Z,59.50
2023-02-27T12:19:48.625Z,59.10
2023-02-27T12:22:27.896Z,59.50
2023-02-27T12:25:12.346Z,59.20
2023-02-27T12:27:49.019Z,59.90
2023-02-27T12:30:24.294Z,59.30
2023-02-27T12:33:16.495Z,58.70
2023-02-27T12:35:47.582Z,58.70
2023-02-27T12:38:15.426Z,58.70
2023-02-27T12:41:08.281Z,57.40
2023-02-27T12:44:14.635Z,56.10
2023-02-27T12:47:10.612Z,56.50
2023-02-27T12:50:12.991Z,57.30
2023-02-27T12:52:45.578Z,58.40
2023-02-27T12:55:15.253Z,57.70
2023-02-27T12:58:25.455Z,58.00
2023-02-27T13:01:01.344Z,58.00
2023-02-27T13:03:39.943Z,58.20
2023-02-27T13:06:35.917Z,58.40
2023-02-27T13:09:09.673Z,57.80
2023-02-27T13:12:01.046Z,58.80
2023-02-27T13:14:36.943Z,58.40
2023-02-27T13:17:12.767Z,59.00
2023-02-27T13:20:14.234Z,57.50
2023-02-27T13:22:48.743Z,57.20
2023-02-27T13:25:17.494Z,59.10
2023-02-27T13:27:55.652Z,59.90
2023-02-27T13:30:29.601Z,58.60
2023-02-27T13:33:08.313Z,58.60
2023-02-27T13:35:50.118Z,58.10
2023-02-27T13:38:34.180Z,58.60
2023-02-27T13:41:28.059Z,57.70
2023-02-27T13:43:56.734Z,57.80
2023-02-27T13:46:26.023Z,59.40
2023-02-27T13:48:54.610Z,58.60
2023-02-27T13:51:39.581Z,59.60
2023-02-27T13:54:18.608Z,59.80
2023-02-27T13:56:51.261Z,59.70
2023-02-27T13:59:25.374Z,59.60
2023-02-27T14:02:16.909Z,59.80
2023-02-27T14:04:55.614Z,60.00
2023-02-27T14:07:25.561Z,60.10
2023-02-27T14:10:02.882Z,60.20
2023-02-27T14:12:43.944Z,59.80
2023-02-27T14:15:17.691Z,60.00
2023-02-27T14:17:49.642Z,59.90
2023-02-27T14:20:19.429Z,59.90
2023-02-27T14:23:16.998Z,59.40
2023-02-27T14:25:50.605Z,58.90
2023-02-27T14:28:32.822Z,59.20
2023-02-27T14:31:04.314Z,59.50
2023-02-27T14:33:50.663Z,59.00
2023-02-27T14:36:22.201Z,59.00
2023-02-27T14:38:50.704Z,57.50
2023-02-27T14:41:48.556Z,58.30
2023-02-27T14:44:23.646Z,57.60
2023-02-27T14:46:52.462Z,58.40
2023-02-27T14:49:31.285Z,59.30
2023-02-27T14:52:14.740Z,59.80
2023-02-27T14:54:42.673Z,58.10
2023-02-27T14:57:16.635Z,59.50
2023-02-27T14:59:44.500Z,59.10
2023-02-27T15:02:16.825Z,59.40
2023-02-27T15:04:44.518Z,58.90
2023-02-27T15:07:18.324Z,59.50
2023-02-27T15:09:48.054Z,59.20
2023-02-27T15:12:18.997Z,58.70
2023-02-27T15:14:57.190Z,59.80
2023-02-27T15:17:39.009Z,60.80
2023-02-27T15:20:20.994Z,60.80
2023-02-27T15:22:47.722Z,60.90
2023-02-27T15:25:31.880Z,60.60
2023-02-27T15:28:03.437Z,60.70
2023-02-27T15:30:30.654Z,60.90
2023-02-27T15:32:58.032Z,61.20
2023-02-27T15:35:27.848Z,60.80
2023-02-27T15:37:56.299Z,60.50
2023-02-27T15:40:25.074Z,60.00
2023-02-27T15:42:52.466Z,60.70
2023-02-27T15:45:20.393Z,60.80
2023-02-27T15:47:47.747Z,61.10
2023-02-27T15:50:26.100Z,60.90
2023-02-27T15:52:54.616Z,62.20
2023-02-27T15:55:23.754Z,62.20
2023-02-27T15:58:02.395Z,61.90
2023-02-27T16:00:31.234Z,62.00
2023-02-27T16:02:58.630Z,61.90
2023-02-27T16:05:34.955Z,61.50
2023-02-27T16:08:02.903Z,62.10
2023-02-27T16:10:30.890Z,62.40
2023-02-27T16:12:57.648Z,62.10
2023-02-27T16:15:24.365Z,62.40
2023-02-27T16:17:56.054Z,62.00
2023-02-27T16:20:31.884Z,62.70
2023-02-27T16:23:06.166Z,62.70
2023-02-27T16:25:32.853Z,62.80
2023-02-27T16:27:59.502Z,63.40
2023-02-27T16:30:26.392Z,63.40
2023-02-27T16:32:58.619Z,63.20
2023-02-27T16:35:25.613Z,63.30
2023-02-27T16:37:53.534Z,64.00
2023-02-27T16:40:24.349Z,63.90
2023-02-27T16:42:51.806Z,62.80
2023-02-27T16:45:20.072Z,62.20
2023-02-27T16:47:51.092Z,61.90
2023-02-27T16:50:23.019Z,61.50
2023-02-27T16:52:49.724Z,60.90
2023-02-27T16:55:16.749Z,61.00
2023-02-27T16:57:43.510Z,60.80
2023-02-27T17:00:11.440Z,60.60
2023-02-27T17:02:38.842Z,61.30
2023-02-27T17:05:06.004Z,61.80
2023-02-27T17:07:32.918Z,62.50
2023-02-27T17:10:00.406Z,62.60
2023-02-27T17:12:27.442Z,62.40
2023-02-27T17:14:54.119Z,62.20
2023-02-27T17:17:20.794Z,63.50
2023-02-27T17:19:47.478Z,63.70
2023-02-27T17:22:15.223Z,63.60
2023-02-27T17:24:41.962Z,63.20
2023-02-27T17:27:09.446Z,64.50
2023-02-27T17:29:37.266Z,64.10
2023-02-27T17:32:04.095Z,63.90
2023-02-27T17:34:30.757Z,63.90
2023-02-27T17:36:57.585Z,63.10
2023-02-27T17:39:24.254Z,64.00
2023-02-27T17:41:53.003Z,64.10
2023-02-27T17:44:19.730Z,65.00
2023-02-27T17:46:46.660Z,64.50
2023-02-27T17:49:13.387Z,64.20
2023-02-27T17:51:40.073Z,63.80
2023-02-27T17:54:07.006Z,63.80
2023-02-27T17:56:36.751Z,63.90
2023-02-27T17:59:04.142Z,63.70
2023-02-27T18:01:30.875Z,63.60
2023-02-27T18:03:57.789Z,63.90
2023-02-27T18:06:24.990Z,64.10
2023-02-27T18:08:51.863Z,64.90
2023-02-27T18:11:19.414Z,65.30
2023-02-27T18:13:46.938Z,65.50
2023-02-27T18:16:13.968Z,65.50
2023-02-27T18:18:42.338Z,65.90
2023-02-27T18:21:17.029Z,65.10
2023-02-27T18:23:44.344Z,64.50
2023-02-27T18:26:28.497Z,65.00
2023-02-27T18:29:00.196Z,64.60
2023-02-27T18:31:30.279Z,64.90
2023-02-27T18:33:57.173Z,64.80
2023-02-27T18:36:24.815Z,65.30
2023-02-27T18:38:51.614Z,66.10
2023-02-27T18:41:18.623Z,66.00
2023-02-27T18:43:45.398Z,65.60
2023-02-27T18:46:13.387Z,65.10
2023-02-27T18:48:41.246Z,65.70
2023-02-27T18:51:12.415Z,65.30
2023-02-27T18:53:40.538Z,65.70
2023-02-27T18:56:09.279Z,65.70
2023-02-27T18:58:36.811Z,65.60
2023-02-27T19:01:04.666Z,65.30
2023-02-27T19:03:32.019Z,66.00
2023-02-27T19:05:59.264Z,65.90
2023-02-27T19:08:29.212Z,66.70
2023-02-27T19:10:57.288Z,66.60
2023-02-27T19:13:25.477Z,66.70
2023-02-27T19:15:53.115Z,66.50
2023-02-27T19:18:20.359Z,66.00
2023-02-27T19:20:49.584Z,66.70
2023-02-27T19:23:16.560Z,66.00
2023-02-27T19:25:44.992Z,67.30
2023-02-27T19:28:13.002Z,67.60
2023-02-27T19:30:40.177Z,67.60
2023-02-27T19:33:07.269Z,67.20
2023-02-27T19:35:34.314Z,67.90
2023-02-27T19:38:01.276Z,68.10
2023-02-27T19:40:28.321Z,68.00
2023-02-27T19:42:55.673Z,67.10
2023-02-27T19:45:23.673Z,67.30
2023-02-27T19:47:50.893Z,66.90
2023-02-27T19:50:18.250Z,66.60
2023-02-27T19:52:46.009Z,66.10
2023-02-27T19:55:13.252Z,66.30
2023-02-27T19:57:40.336Z,66.20
2023-02-27T20:00:10.124Z,67.10
2023-02-27T20:02:39.339Z,65.90
2023-02-27T20:05:06.790Z,65.90
2023-02-27T20:07:34.023Z,65.70
2023-02-27T20:10:02.213Z,65.90
2023-02-27T20:12:29.416Z,64.40
2023-02-27T20:14:56.660Z,65.90
2023-02-27T20:17:23.730Z,65.50
2023-02-27T20:19:52.355Z,65.90
2023-02-27T20:22:19.475Z,65.70
2023-02-27T20:24:46.670Z,65.90
2023-02-27T20:27:15.247Z,66.00
2023-02-27T20:29:42.378Z,65.90
2023-02-27T20:32:11.557Z,66.00
2023-02-27T20:34:38.585Z,66.20
2023-02-27T20:37:05.734Z,66.80
2023-02-27T20:39:32.926Z,67.00
2023-02-27T20:42:01.209Z,67.20
2023-02-27T20:44:28.536Z,67.10
2023-02-27T20:46:57.913Z,66.90
2023-02-27T20:49:26.218Z,66.90
2023-02-27T20:51:53.381Z,67.10
2023-02-27T20:54:20.846Z,67.10
2023-02-27T20:56:52.374Z,67.10
2023-02-27T20:59:21.018Z,67.00
2023-02-27T21:01:51.753Z,67.30
2023-02-27T21:04:23.603Z,67.50
2023-02-27T21:06:51.427Z,67.20
2023-02-27T21:09:19.119Z,67.40
2023-02-27T21:11:46.110Z,67.70
2023-02-27T21:14:13.220Z,67.40
2023-02-27T21:16:40.845Z,67.20
2023-02-27T21:19:08.440Z,67.40
2023-02-27T21:21:37.692Z,67.20
2023-02-27T21:24:06.263Z,67.20
2023-02-27T21:26:40.589Z,67.00
2023-02-27T21:29:14.121Z,67.00
2023-02-27T21:31:45.162Z,67.30
2023-02-27T21:34:17.734Z,67.30
2023-02-27T21:36:46.391Z,67.60
2023-02-27T21:39:16.209Z,67.50
2023-02-27T21:41:43.571Z,67.70
2023-02-27T21:44:14.323Z,67.80
2023-02-27T21:46:41.625Z,67.80
2023-02-27T21:49:12.044Z,67.60
2023-02-27T21:51:41.313Z,67.90
2023-02-27T21:54:11.599Z,67.90
2023-02-27T21:56:39.694Z,68.00
2023-02-27T21:59:06.935Z,68.20
2023-02-27T22:01:34.435Z,67.80
2023-02-27T22:04:02.275Z,67.80
2023-02-27T22:06:32.171Z,68.30
2023-02-27T22:09:02.200Z,68.10
2023-02-27T22:11:29.617Z,68.50
2023-02-27T22:13:57.423Z,68.50
2023-02-27T22:16:24.549Z,68.70
2023-02-27T22:18:51.950Z,68.20
2023-02-27T22:21:22.586Z,68.50
2023-02-27T22:23:50.294Z,68.50
2023-02-27T22:26:24.863Z,68.20
2023-02-27T22:28:57.218Z,68.30
2023-02-27T22:31:33.437Z,68.30
2023-02-27T22:34:10.742Z,68.20
2023-02-27T22:36:38.052Z,68.40
2023-02-27T22:39:05.652Z,68.40
2023-02-27T22:41:35.729Z,68.50
2023-02-27T22:44:03.291Z,68.80
2023-02-27T22:46:38.443Z,69.10
2023-02-27T22:49:08.530Z,69.10
2023-02-27T22:51:35.646Z,69.10
2023-02-27T22:54:04.543Z,69.30
2023-02-27T22:56:32.329Z,69.40
2023-02-27T22:58:59.482Z,69.20
2023-02-27T23:01:29.409Z,69.20
2023-02-27T23:03:59.580Z,69.70
2023-02-27T23:06:29.364Z,70.10
2023-02-27T23:08:56.094Z,70.10
2023-02-27T23:11:23.667Z,70.10
2023-02-27T23:13:50.764Z,70.50
2023-02-27T23:16:18.037Z,70.60
2023-02-27T23:18:55.132Z,71.10
2023-02-27T23:21:24.706Z,70.90
2023-02-27T23:23:58.129Z,71.20
2023-02-27T23:26:28.568Z,71.10
2023-02-27T23:28:56.769Z,71.20
2023-02-27T23:31:24.047Z,71.20
2023-02-27T23:33:50.871Z,71.40
2023-02-27T23:36:17.843Z,71.70
2023-02-27T23:38:46.637Z,71.80
2023-02-27T23:41:16.768Z,71.70
2023-02-27T23:43:44.930Z,71.70
2023-02-27T23:46:15.231Z,72.00
2023-02-27T23:48:42.748Z,72.10
2023-02-27T23:51:10.813Z,72.00
2023-02-27T23:53:40.359Z,71.90
2023-02-27T23:56:21.109Z,72.10
2023-02-27T23:58:52.872Z,72.10
